Duluth, Minnesota
Current Conditions -  °F | °C
As of 10:55 PM on Friday 24 Oct 2014 (Local Time) from KDLH Reporting Station
Clear Clear  
Wind Chill: 15°   Ceiling: Unl
Heat Index: 15°   Visibility: 10mi
Dew Point:   Wind: 15mph
Humidity: 51%   Direction: 280°W
Pressure: 29.76"   Gusts: NA
Location:  46.79°N, 92.09°W
Report Text: KDLH 250355Z 28013KT 10SM CLR 15/05 A2976 RMK AO2 SLP082 T01500050
Loading
Personal Weather Stations






























Interactive Weather Map New forecast layout! Learn more

10-Day Weather Forecast

Advertisements
Track Severe Weather on mobile